sensor_id;sensor_type;location;lat;lon;timestamp;temperature;humidity
21787;DHT22;11055;50.870;4.316;2022-09-12T00:02:21;20.20;99.90
21787;DHT22;11055;50.870;4.316;2022-09-12T00:04:47;20.00;99.90
21787;DHT22;11055;50.870;4.316;2022-09-12T00:07:12;19.90;99.90
21787;DHT22;11055;50.870;4.316;2022-09-12T00:09:38;19.90;99.90
21787;DHT22;11055;50.870;4.316;2022-09-12T00:12:04;19.90;99.90
21787;DHT22;11055;50.870;4.316;2022-09-12T00:14:29;20.10;99.90
21787;DHT22;11055;50.870;4.316;2022-09-12T00:16:59;20.00;99.90
21787;DHT22;11055;50.870;4.316;2022-09-12T00:19:25;19.90;99.90
21787;DHT22;11055;50.870;4.316;2022-09-12T00:21:51;19.90;99.90
21787;DHT22;11055;50.870;4.316;2022-09-12T00:24:16;19.90;99.90
21787;DHT22;11055;50.870;4.316;2022-09-12T00:26:42;20.10;99.90
21787;DHT22;11055;50.870;4.316;2022-09-12T00:29:07;20.00;99.90
21787;DHT22;11055;50.870;4.316;2022-09-12T00:31:34;19.90;99.90
21787;DHT22;11055;50.870;4.316;2022-09-12T00:34:00;19.90;99.90
21787;DHT22;11055;50.870;4.316;2022-09-12T00:36:26;19.80;99.90
21787;DHT22;11055;50.870;4.316;2022-09-12T00:38:52;19.90;99.90
21787;DHT22;11055;50.870;4.316;2022-09-12T00:43:46;19.90;99.90
21787;DHT22;11055;50.870;4.316;2022-09-12T00:48:49;19.90;99.90
21787;DHT22;11055;50.870;4.316;2022-09-12T00:51:16;19.90;99.90
21787;DHT22;11055;50.870;4.316;2022-09-12T00:53:42;19.70;99.90
21787;DHT22;11055;50.870;4.316;2022-09-12T00:56:08;19.70;99.90
21787;DHT22;11055;50.870;4.316;2022-09-12T00:58:35;19.80;99.90
21787;DHT22;11055;50.870;4.316;2022-09-12T01:01:03;19.70;99.90
21787;DHT22;11055;50.870;4.316;2022-09-12T01:03:28;19.60;99.90
21787;DHT22;11055;50.870;4.316;2022-09-12T01:06:02;19.70;99.90
21787;DHT22;11055;50.870;4.316;2022-09-12T01:08:30;19.80;99.90
21787;DHT22;11055;50.870;4.316;2022-09-12T01:10:56;19.60;99.90
21787;DHT22;11055;50.870;4.316;2022-09-12T01:13:21;19.60;99.90
21787;DHT22;11055;50.870;4.316;2022-09-12T01:15:47;19.60;99.90
21787;DHT22;11055;50.870;4.316;2022-09-12T01:18:21;19.70;99.90
21787;DHT22;11055;50.870;4.316;2022-09-12T01:20:50;19.70;99.90
21787;DHT22;11055;50.870;4.316;2022-09-12T01:31:22;19.50;99.90
21787;DHT22;11055;50.870;4.316;2022-09-12T01:39:04;19.60;99.90
21787;DHT22;11055;50.870;4.316;2022-09-12T01:41:52;19.60;99.90
21787;DHT22;11055;50.870;4.316;2022-09-12T01:44:38;19.60;99.90
21787;DHT22;11055;50.870;4.316;2022-09-12T01:47:05;19.70;99.90
21787;DHT22;11055;50.870;4.316;2022-09-12T01:49:45;19.60;99.90
21787;DHT22;11055;50.870;4.316;2022-09-12T01:54:41;19.50;99.90
21787;DHT22;11055;50.870;4.316;2022-09-12T01:57:10;19.60;99.90
21787;DHT22;11055;50.870;4.316;2022-09-12T01:59:39;19.50;99.90
21787;DHT22;11055;50.870;4.316;2022-09-12T02:02:06;19.50;99.90
21787;DHT22;11055;50.870;4.316;2022-09-12T02:04:41;19.40;99.90
21787;DHT22;11055;50.870;4.316;2022-09-12T02:09:35;19.30;99.90
21787;DHT22;11055;50.870;4.316;2022-09-12T02:12:02;19.30;99.90
21787;DHT22;11055;50.870;4.316;2022-09-12T02:14:39;19.30;99.90
21787;DHT22;11055;50.870;4.316;2022-09-12T02:17:08;19.20;99.90
21787;DHT22;11055;50.870;4.316;2022-09-12T02:19:38;19.20;99.90
21787;DHT22;11055;50.870;4.316;2022-09-12T02:22:04;19.20;99.90
21787;DHT22;11055;50.870;4.316;2022-09-12T02:24:32;19.10;99.90
21787;DHT22;11055;50.870;4.316;2022-09-12T02:27:02;19.10;99.90
21787;DHT22;11055;50.870;4.316;2022-09-12T02:29:29;19.10;99.90
21787;DHT22;11055;50.870;4.316;2022-09-12T02:31:56;19.10;99.90
21787;DHT22;11055;50.870;4.316;2022-09-12T02:37:11;19.00;99.90
21787;DHT22;11055;50.870;4.316;2022-09-12T02:39:38;19.10;99.90
21787;DHT22;11055;50.870;4.316;2022-09-12T02:42:04;19.00;99.90
21787;DHT22;11055;50.870;4.316;2022-09-12T02:44:30;19.00;99.90
21787;DHT22;11055;50.870;4.316;2022-09-12T02:47:01;19.00;99.90
21787;DHT22;11055;50.870;4.316;2022-09-12T02:49:28;18.80;99.90
21787;DHT22;11055;50.870;4.316;2022-09-12T02:51:53;18.70;99.90
21787;DHT22;11055;50.870;4.316;2022-09-12T02:54:20;18.60;99.90
21787;DHT22;11055;50.870;4.316;2022-09-12T02:56:45;18.50;99.90
21787;DHT22;11055;50.870;4.316;2022-09-12T02:59:15;18.50;99.90
21787;DHT22;11055;50.870;4.316;2022-09-12T03:09:38;18.40;99.90
21787;DHT22;11055;50.870;4.316;2022-09-12T03:20:06;18.40;99.90
21787;DHT22;11055;50.870;4.316;2022-09-12T03:25:14;18.30;99.90
21787;DHT22;11055;50.870;4.316;2022-09-12T03:27:42;18.40;99.90
21787;DHT22;11055;50.870;4.316;2022-09-12T03:30:09;18.40;99.90
21787;DHT22;11055;50.870;4.316;2022-09-12T03:35:05;18.60;99.90
21787;DHT22;11055;50.870;4.316;2022-09-12T03:37:31;18.60;99.90
21787;DHT22;11055;50.870;4.316;2022-09-12T03:39:56;18.60;99.90
21787;DHT22;11055;50.870;4.316;2022-09-12T03:42:22;18.50;99.90
21787;DHT22;11055;50.870;4.316;2022-09-12T03:44:47;18.80;99.90
21787;DHT22;11055;50.870;4.316;2022-09-12T03:47:13;18.60;99.90
21787;DHT22;11055;50.870;4.316;2022-09-12T03:49:38;18.60;99.90
21787;DHT22;11055;50.870;4.316;2022-09-12T03:52:04;18.60;99.90
21787;DHT22;11055;50.870;4.316;2022-09-12T03:54:29;18.70;99.90
21787;DHT22;11055;50.870;4.316;2022-09-12T03:56:55;18.50;99.90
21787;DHT22;11055;50.870;4.316;2022-09-12T03:59:20;18.60;99.90
21787;DHT22;11055;50.870;4.316;2022-09-12T04:01:46;18.60;99.90
21787;DHT22;11055;50.870;4.316;2022-09-12T04:04:11;18.50;99.90
21787;DHT22;11055;50.870;4.316;2022-09-12T04:06:37;18.40;99.90
21787;DHT22;11055;50.870;4.316;2022-09-12T04:09:02;18.40;99.90
21787;DHT22;11055;50.870;4.316;2022-09-12T04:11:28;18.40;99.90
21787;DHT22;11055;50.870;4.316;2022-09-12T04:13:53;18.30;99.90
21787;DHT22;11055;50.870;4.316;2022-09-12T04:16:19;18.20;99.90
21787;DHT22;11055;50.870;4.316;2022-09-12T04:18:44;18.20;99.90
21787;DHT22;11055;50.870;4.316;2022-09-12T04:21:12;18.20;99.90
21787;DHT22;11055;50.870;4.316;2022-09-12T04:23:37;18.20;99.90
21787;DHT22;11055;50.870;4.316;2022-09-12T04:26:03;18.20;99.90
21787;DHT22;11055;50.870;4.316;2022-09-12T04:28:32;18.30;99.90
21787;DHT22;11055;50.870;4.316;2022-09-12T04:31:03;18.30;99.90
21787;DHT22;11055;50.870;4.316;2022-09-12T04:33:29;18.50;99.90
21787;DHT22;11055;50.870;4.316;2022-09-12T04:35:54;18.40;99.90
21787;DHT22;11055;50.870;4.316;2022-09-12T04:38:20;18.40;99.90
21787;DHT22;11055;50.870;4.316;2022-09-12T04:40:45;18.50;99.90
21787;DHT22;11055;50.870;4.316;2022-09-12T04:43:11;18.60;99.90
21787;DHT22;11055;50.870;4.316;2022-09-12T04:45:37;18.60;99.90
21787;DHT22;11055;50.870;4.316;2022-09-12T04:48:03;18.60;99.90
21787;DHT22;11055;50.870;4.316;2022-09-12T04:50:28;18.50;99.90
21787;DHT22;11055;50.870;4.316;2022-09-12T04:52:54;18.50;99.90
21787;DHT22;11055;50.870;4.316;2022-09-12T04:55:20;18.60;99.90
21787;DHT22;11055;50.870;4.316;2022-09-12T04:57:46;18.60;99.90
21787;DHT22;11055;50.870;4.316;2022-09-12T05:00:12;18.60;99.90
21787;DHT22;11055;50.870;4.316;2022-09-12T05:02:39;18.60;99.90
21787;DHT22;11055;50.870;4.316;2022-09-12T05:05:05;18.70;99.90
21787;DHT22;11055;50.870;4.316;2022-09-12T05:07:30;18.80;99.90
21787;DHT22;11055;50.870;4.316;2022-09-12T05:09:56;18.50;99.90
21787;DHT22;11055;50.870;4.316;2022-09-12T05:12:22;18.60;99.90
21787;DHT22;11055;50.870;4.316;2022-09-12T05:14:48;18.60;99.90
21787;DHT22;11055;50.870;4.316;2022-09-12T05:17:13;18.70;99.90
21787;DHT22;11055;50.870;4.316;2022-09-12T05:19:39;18.60;99.90
21787;DHT22;11055;50.870;4.316;2022-09-12T05:22:04;18.50;99.90
21787;DHT22;11055;50.870;4.316;2022-09-12T05:24:31;18.60;99.90
21787;DHT22;11055;50.870;4.316;2022-09-12T05:26:57;18.70;99.90
21787;DHT22;11055;50.870;4.316;2022-09-12T05:29:23;18.70;99.90
21787;DHT22;11055;50.870;4.316;2022-09-12T05:31:49;18.60;99.90
21787;DHT22;11055;50.870;4.316;2022-09-12T05:34:16;18.60;99.90
21787;DHT22;11055;50.870;4.316;2022-09-12T05:36:42;18.70;99.90
21787;DHT22;11055;50.870;4.316;2022-09-12T05:39:07;18.70;99.90
21787;DHT22;11055;50.870;4.316;2022-09-12T05:41:33;18.70;99.90
21787;DHT22;11055;50.870;4.316;2022-09-12T05:43:59;18.70;99.90
21787;DHT22;11055;50.870;4.316;2022-09-12T05:46:26;18.60;99.90
21787;DHT22;11055;50.870;4.316;2022-09-12T05:48:52;18.60;99.90
21787;DHT22;11055;50.870;4.316;2022-09-12T05:51:26;18.70;99.90
21787;DHT22;11055;50.870;4.316;2022-09-12T05:53:53;18.70;99.90
21787;DHT22;11055;50.870;4.316;2022-09-12T05:56:20;18.70;99.90
21787;DHT22;11055;50.870;4.316;2022-09-12T05:58:51;18.80;99.90
21787;DHT22;11055;50.870;4.316;2022-09-12T06:01:17;18.70;99.90
21787;DHT22;11055;50.870;4.316;2022-09-12T06:03:44;18.70;99.90
21787;DHT22;11055;50.870;4.316;2022-09-12T06:06:11;18.50;99.90
21787;DHT22;11055;50.870;4.316;2022-09-12T06:08:38;18.40;99.90
21787;DHT22;11055;50.870;4.316;2022-09-12T06:11:05;18.30;99.90
21787;DHT22;11055;50.870;4.316;2022-09-12T06:13:31;18.40;99.90
21787;DHT22;11055;50.870;4.316;2022-09-12T06:16:04;18.50;99.90
21787;DHT22;11055;50.870;4.316;2022-09-12T06:18:31;18.40;99.90
21787;DHT22;11055;50.870;4.316;2022-09-12T06:20:56;18.50;99.90
21787;DHT22;11055;50.870;4.316;2022-09-12T06:23:23;18.50;99.90
21787;DHT22;11055;50.870;4.316;2022-09-12T06:25:48;18.50;99.90
21787;DHT22;11055;50.870;4.316;2022-09-12T06:28:14;18.60;99.90
21787;DHT22;11055;50.870;4.316;2022-09-12T06:30:40;18.50;99.90
21787;DHT22;11055;50.870;4.316;2022-09-12T06:33:05;18.60;99.90
21787;DHT22;11055;50.870;4.316;2022-09-12T06:35:34;18.60;99.90
21787;DHT22;11055;50.870;4.316;2022-09-12T06:37:59;18.80;99.90
21787;DHT22;11055;50.870;4.316;2022-09-12T06:40:26;18.70;99.90
21787;DHT22;11055;50.870;4.316;2022-09-12T06:42:51;18.80;99.90
21787;DHT22;11055;50.870;4.316;2022-09-12T06:45:17;18.90;99.90
21787;DHT22;11055;50.870;4.316;2022-09-12T06:47:44;18.90;99.90
21787;DHT22;11055;50.870;4.316;2022-09-12T06:50:09;18.90;99.90
21787;DHT22;11055;50.870;4.316;2022-09-12T06:52:36;19.00;99.90
21787;DHT22;11055;50.870;4.316;2022-09-12T06:55:02;19.00;99.90
21787;DHT22;11055;50.870;4.316;2022-09-12T06:57:28;19.00;99.90
21787;DHT22;11055;50.870;4.316;2022-09-12T06:59:55;19.10;99.90
21787;DHT22;11055;50.870;4.316;2022-09-12T07:02:21;19.10;99.90
21787;DHT22;11055;50.870;4.316;2022-09-12T07:04:46;19.10;99.90
21787;DHT22;11055;50.870;4.316;2022-09-12T07:07:14;19.20;99.90
21787;DHT22;11055;50.870;4.316;2022-09-12T07:09:39;19.20;99.90
21787;DHT22;11055;50.870;4.316;2022-09-12T07:12:05;19.20;99.90
21787;DHT22;11055;50.870;4.316;2022-09-12T07:14:31;19.20;99.90
21787;DHT22;11055;50.870;4.316;2022-09-12T07:16:56;19.20;99.90
21787;DHT22;11055;50.870;4.316;2022-09-12T07:19:22;19.20;99.90
21787;DHT22;11055;50.870;4.316;2022-09-12T07:21:48;19.20;99.90
21787;DHT22;11055;50.870;4.316;2022-09-12T07:24:14;19.30;99.90
21787;DHT22;11055;50.870;4.316;2022-09-12T07:26:40;19.30;99.90
21787;DHT22;11055;50.870;4.316;2022-09-12T07:29:06;19.30;99.90
21787;DHT22;11055;50.870;4.316;2022-09-12T07:31:34;19.30;99.90
21787;DHT22;11055;50.870;4.316;2022-09-12T07:34:03;19.30;99.90
21787;DHT22;11055;50.870;4.316;2022-09-12T07:36:29;19.40;99.90
21787;DHT22;11055;50.870;4.316;2022-09-12T07:38:55;19.60;99.90
21787;DHT22;11055;50.870;4.316;2022-09-12T07:41:22;19.70;99.90
21787;DHT22;11055;50.870;4.316;2022-09-12T07:43:50;19.80;99.90
21787;DHT22;11055;50.870;4.316;2022-09-12T07:46:16;19.90;99.90
21787;DHT22;11055;50.870;4.316;2022-09-12T07:48:41;20.10;99.90
21787;DHT22;11055;50.870;4.316;2022-09-12T07:51:08;20.20;99.90
21787;DHT22;11055;50.870;4.316;2022-09-12T07:53:34;20.20;99.90
21787;DHT22;11055;50.870;4.316;2022-09-12T07:56:01;20.30;99.90
21787;DHT22;11055;50.870;4.316;2022-09-12T07:58:30;20.20;99.90
21787;DHT22;11055;50.870;4.316;2022-09-12T08:01:06;20.30;99.90
21787;DHT22;11055;50.870;4.316;2022-09-12T08:03:33;20.40;99.90
21787;DHT22;11055;50.870;4.316;2022-09-12T08:06:03;20.50;99.90
21787;DHT22;11055;50.870;4.316;2022-09-12T08:08:28;20.50;99.90
21787;DHT22;11055;50.870;4.316;2022-09-12T08:10:57;20.40;99.90
21787;DHT22;11055;50.870;4.316;2022-09-12T08:13:24;20.40;99.90
21787;DHT22;11055;50.870;4.316;2022-09-12T08:15:50;20.20;99.90
21787;DHT22;11055;50.870;4.316;2022-09-12T08:18:15;20.40;99.90
21787;DHT22;11055;50.870;4.316;2022-09-12T08:20:41;20.40;99.90
21787;DHT22;11055;50.870;4.316;2022-09-12T08:23:07;20.40;99.90
21787;DHT22;11055;50.870;4.316;2022-09-12T08:25:32;20.40;99.90
21787;DHT22;11055;50.870;4.316;2022-09-12T08:27:58;20.30;99.90
21787;DHT22;11055;50.870;4.316;2022-09-12T08:30:25;20.20;99.90
21787;DHT22;11055;50.870;4.316;2022-09-12T08:32:51;20.10;99.90
21787;DHT22;11055;50.870;4.316;2022-09-12T08:35:16;20.20;99.90
21787;DHT22;11055;50.870;4.316;2022-09-12T08:37:42;20.20;99.90
21787;DHT22;11055;50.870;4.316;2022-09-12T08:40:10;20.30;99.90
21787;DHT22;11055;50.870;4.316;2022-09-12T08:42:53;20.20;99.90
21787;DHT22;11055;50.870;4.316;2022-09-12T08:45:22;20.20;99.90
21787;DHT22;11055;50.870;4.316;2022-09-12T08:47:52;20.10;99.90
21787;DHT22;11055;50.870;4.316;2022-09-12T08:50:19;20.10;99.90
21787;DHT22;11055;50.870;4.316;2022-09-12T08:57:43;20.20;99.90
21787;DHT22;11055;50.870;4.316;2022-09-12T09:00:11;20.40;99.90
21787;DHT22;11055;50.870;4.316;2022-09-12T09:13:05;20.50;99.90
21787;DHT22;11055;50.870;4.316;2022-09-12T09:15:40;20.40;99.90
21787;DHT22;11055;50.870;4.316;2022-09-12T09:18:11;20.50;99.90
21787;DHT22;11055;50.870;4.316;2022-09-12T09:20:56;20.60;99.90
21787;DHT22;11055;50.870;4.316;2022-09-12T09:23:28;20.60;99.90
21787;DHT22;11055;50.870;4.316;2022-09-12T09:30:54;20.70;99.90
21787;DHT22;11055;50.870;4.316;2022-09-12T09:33:21;20.60;99.90
21787;DHT22;11055;50.870;4.316;2022-09-12T09:43:28;20.70;99.90
21787;DHT22;11055;50.870;4.316;2022-09-12T09:45:55;20.80;99.90
21787;DHT22;11055;50.870;4.316;2022-09-12T09:48:22;20.80;99.90
21787;DHT22;11055;50.870;4.316;2022-09-12T09:50:50;20.80;99.90
21787;DHT22;11055;50.870;4.316;2022-09-12T09:56:00;20.90;99.90
21787;DHT22;11055;50.870;4.316;2022-09-12T09:58:31;21.00;99.90
21787;DHT22;11055;50.870;4.316;2022-09-12T10:00:57;21.00;99.90
21787;DHT22;11055;50.870;4.316;2022-09-12T10:03:25;21.10;99.90
21787;DHT22;11055;50.870;4.316;2022-09-12T10:05:53;21.20;99.90
21787;DHT22;11055;50.870;4.316;2022-09-12T10:08:20;21.20;99.90
21787;DHT22;11055;50.870;4.316;2022-09-12T10:10:54;21.00;99.90
21787;DHT22;11055;50.870;4.316;2022-09-12T10:13:25;21.00;99.90
21787;DHT22;11055;50.870;4.316;2022-09-12T10:15:57;21.10;99.90
21787;DHT22;11055;50.870;4.316;2022-09-12T10:18:40;21.10;99.90
21787;DHT22;11055;50.870;4.316;2022-09-12T10:21:40;21.20;99.90
21787;DHT22;11055;50.870;4.316;2022-09-12T10:24:09;21.30;99.90
21787;DHT22;11055;50.870;4.316;2022-09-12T10:26:38;21.40;99.90
21787;DHT22;11055;50.870;4.316;2022-09-12T10:29:14;21.40;99.90
21787;DHT22;11055;50.870;4.316;2022-09-12T10:31:45;21.50;99.90
21787;DHT22;11055;50.870;4.316;2022-09-12T10:34:19;21.60;99.90
21787;DHT22;11055;50.870;4.316;2022-09-12T10:36:46;21.70;99.90
21787;DHT22;11055;50.870;4.316;2022-09-12T10:39:16;21.60;99.90
21787;DHT22;11055;50.870;4.316;2022-09-12T10:41:42;21.80;99.90
21787;DHT22;11055;50.870;4.316;2022-09-12T10:44:23;21.80;99.90
21787;DHT22;11055;50.870;4.316;2022-09-12T10:46:51;21.80;99.90
21787;DHT22;11055;50.870;4.316;2022-09-12T10:51:47;22.10;99.90
21787;DHT22;11055;50.870;4.316;2022-09-12T10:54:14;22.40;99.90
21787;DHT22;11055;50.870;4.316;2022-09-12T11:01:59;22.80;99.90
21787;DHT22;11055;50.870;4.316;2022-09-12T11:07:19;23.20;99.90
21787;DHT22;11055;50.870;4.316;2022-09-12T11:09:50;23.40;99.90
21787;DHT22;11055;50.870;4.316;2022-09-12T11:30:17;25.10;99.90
21787;DHT22;11055;50.870;4.316;2022-09-12T11:32:56;25.30;99.90
21787;DHT22;11055;50.870;4.316;2022-09-12T11:35:28;25.60;99.90
21787;DHT22;11055;50.870;4.316;2022-09-12T11:43:19;26.20;99.90
21787;DHT22;11055;50.870;4.316;2022-09-12T11:45:46;26.30;99.90
21787;DHT22;11055;50.870;4.316;2022-09-12T11:48:23;26.50;99.90
21787;DHT22;11055;50.870;4.316;2022-09-12T11:50:51;26.50;99.90
21787;DHT22;11055;50.870;4.316;2022-09-12T11:53:27;26.60;99.90
21787;DHT22;11055;50.870;4.316;2022-09-12T11:55:58;26.70;99.90
21787;DHT22;11055;50.870;4.316;2022-09-12T11:58:26;26.80;99.90
21787;DHT22;11055;50.870;4.316;2022-09-12T12:01:09;26.90;99.90
21787;DHT22;11055;50.870;4.316;2022-09-12T12:03:42;27.00;99.90
21787;DHT22;11055;50.870;4.316;2022-09-12T12:06:15;27.00;99.90
21787;DHT22;11055;50.870;4.316;2022-09-12T12:08:43;27.10;99.90
21787;DHT22;11055;50.870;4.316;2022-09-12T12:11:11;27.10;99.80
21787;DHT22;11055;50.870;4.316;2022-09-12T12:13:38;27.20;99.40
21787;DHT22;11055;50.870;4.316;2022-09-12T12:18:35;27.20;99.90
21787;DHT22;11055;50.870;4.316;2022-09-12T12:26:39;27.50;98.80
21787;DHT22;11055;50.870;4.316;2022-09-12T12:34:27;27.30;99.90
21787;DHT22;11055;50.870;4.316;2022-09-12T12:36:53;27.30;99.00
21787;DHT22;11055;50.870;4.316;2022-09-12T12:40:04;27.40;98.80
21787;DHT22;11055;50.870;4.316;2022-09-12T12:42:04;27.50;98.40
21787;DHT22;11055;50.870;4.316;2022-09-12T12:47:27;27.50;97.90
21787;DHT22;11055;50.870;4.316;2022-09-12T12:52:21;27.60;97.40
21787;DHT22;11055;50.870;4.316;2022-09-12T12:54:53;27.60;97.40
21787;DHT22;11055;50.870;4.316;2022-09-12T12:57:40;27.60;96.40
21787;DHT22;11055;50.870;4.316;2022-09-12T13:02:49;27.30;97.00
21787;DHT22;11055;50.870;4.316;2022-09-12T13:05:18;27.10;97.40
21787;DHT22;11055;50.870;4.316;2022-09-12T13:07:45;26.90;97.70
21787;DHT22;11055;50.870;4.316;2022-09-12T13:10:20;26.90;97.40
21787;DHT22;11055;50.870;4.316;2022-09-12T13:12:47;26.90;96.40
21787;DHT22;11055;50.870;4.316;2022-09-12T13:18:00;27.10;98.50
21787;DHT22;11055;50.870;4.316;2022-09-12T13:20:29;27.20;97.80
21787;DHT22;11055;50.870;4.316;2022-09-12T13:22:57;27.20;98.50
21787;DHT22;11055;50.870;4.316;2022-09-12T13:30:30;27.40;96.40
21787;DHT22;11055;50.870;4.316;2022-09-12T13:32:56;27.40;95.90
21787;DHT22;11055;50.870;4.316;2022-09-12T13:42:52;27.50;96.60
21787;DHT22;11055;50.870;4.316;2022-09-12T13:45:31;27.50;95.60
21787;DHT22;11055;50.870;4.316;2022-09-12T13:47:59;27.60;96.70
21787;DHT22;11055;50.870;4.316;2022-09-12T13:50:27;27.60;96.60
21787;DHT22;11055;50.870;4.316;2022-09-12T13:53:17;27.20;95.80
21787;DHT22;11055;50.870;4.316;2022-09-12T13:55:48;27.00;97.30
21787;DHT22;11055;50.870;4.316;2022-09-12T13:58:18;27.00;97.20
21787;DHT22;11055;50.870;4.316;2022-09-12T14:00:44;26.90;97.90
21787;DHT22;11055;50.870;4.316;2022-09-12T14:06:20;26.50;96.00
21787;DHT22;11055;50.870;4.316;2022-09-12T14:08:46;26.40;96.40
21787;DHT22;11055;50.870;4.316;2022-09-12T14:11:25;26.40;97.40
21787;DHT22;11055;50.870;4.316;2022-09-12T14:13:51;26.30;97.20
21787;DHT22;11055;50.870;4.316;2022-09-12T14:16:17;26.40;97.50
21787;DHT22;11055;50.870;4.316;2022-09-12T14:18:43;26.20;96.90
21787;DHT22;11055;50.870;4.316;2022-09-12T14:21:17;26.10;97.70
21787;DHT22;11055;50.870;4.316;2022-09-12T14:23:45;26.00;97.70
21787;DHT22;11055;50.870;4.316;2022-09-12T14:26:13;26.00;98.40
21787;DHT22;11055;50.870;4.316;2022-09-12T14:28:40;26.00;97.90
21787;DHT22;11055;50.870;4.316;2022-09-12T14:33:53;26.00;98.50
21787;DHT22;11055;50.870;4.316;2022-09-12T14:36:19;26.00;97.50
21787;DHT22;11055;50.870;4.316;2022-09-12T14:38:48;26.00;97.70
21787;DHT22;11055;50.870;4.316;2022-09-12T14:41:19;25.90;97.40
21787;DHT22;11055;50.870;4.316;2022-09-12T14:43:46;26.00;98.40
21787;DHT22;11055;50.870;4.316;2022-09-12T14:46:20;25.70;98.10
21787;DHT22;11055;50.870;4.316;2022-09-12T14:48:51;25.70;97.40
21787;DHT22;11055;50.870;4.316;2022-09-12T14:51:18;25.80;96.90
21787;DHT22;11055;50.870;4.316;2022-09-12T14:53:48;25.80;97.90
21787;DHT22;11055;50.870;4.316;2022-09-12T14:56:14;25.60;97.00
21787;DHT22;11055;50.870;4.316;2022-09-12T14:58:40;25.60;96.30
21787;DHT22;11055;50.870;4.316;2022-09-12T15:05:56;25.60;95.40
21787;DHT22;11055;50.870;4.316;2022-09-12T15:08:23;25.70;96.20
21787;DHT22;11055;50.870;4.316;2022-09-12T15:10:49;25.70;97.10
21787;DHT22;11055;50.870;4.316;2022-09-12T15:13:19;25.60;96.50
21787;DHT22;11055;50.870;4.316;2022-09-12T15:15:46;25.60;97.40
21787;DHT22;11055;50.870;4.316;2022-09-12T15:18:12;25.60;97.70
21787;DHT22;11055;50.870;4.316;2022-09-12T15:20:38;25.60;97.40
21787;DHT22;11055;50.870;4.316;2022-09-12T15:23:05;25.60;96.50
21787;DHT22;11055;50.870;4.316;2022-09-12T15:25:32;25.60;96.30
21787;DHT22;11055;50.870;4.316;2022-09-12T15:27:57;25.70;97.40
21787;DHT22;11055;50.870;4.316;2022-09-12T15:30:23;25.70;96.10
21787;DHT22;11055;50.870;4.316;2022-09-12T15:32:48;25.80;97.90
21787;DHT22;11055;50.870;4.316;2022-09-12T15:35:19;25.70;97.80
21787;DHT22;11055;50.870;4.316;2022-09-12T15:37:47;25.70;98.10
21787;DHT22;11055;50.870;4.316;2022-09-12T15:40:13;25.60;97.80
21787;DHT22;11055;50.870;4.316;2022-09-12T15:42:38;25.60;96.70
21787;DHT22;11055;50.870;4.316;2022-09-12T15:45:24;25.70;97.60
21787;DHT22;11055;50.870;4.316;2022-09-12T15:47:51;25.70;97.40
21787;DHT22;11055;50.870;4.316;2022-09-12T15:50:17;25.60;97.70
21787;DHT22;11055;50.870;4.316;2022-09-12T15:52:42;25.70;97.90
21787;DHT22;11055;50.870;4.316;2022-09-12T15:55:14;25.70;97.80
21787;DHT22;11055;50.870;4.316;2022-09-12T15:57:40;25.70;97.50
21787;DHT22;11055;50.870;4.316;2022-09-12T16:00:06;25.70;97.80
21787;DHT22;11055;50.870;4.316;2022-09-12T16:02:31;25.70;97.30
21787;DHT22;11055;50.870;4.316;2022-09-12T16:04:57;25.80;97.50
21787;DHT22;11055;50.870;4.316;2022-09-12T16:07:22;25.80;97.80
21787;DHT22;11055;50.870;4.316;2022-09-12T16:09:48;25.80;97.20
21787;DHT22;11055;50.870;4.316;2022-09-12T16:12:15;25.80;97.10
21787;DHT22;11055;50.870;4.316;2022-09-12T16:14:40;25.80;97.80
21787;DHT22;11055;50.870;4.316;2022-09-12T16:17:06;25.80;97.70
21787;DHT22;11055;50.870;4.316;2022-09-12T16:19:32;25.90;97.70
21787;DHT22;11055;50.870;4.316;2022-09-12T16:21:58;25.90;98.10
21787;DHT22;11055;50.870;4.316;2022-09-12T16:24:23;25.90;98.20
21787;DHT22;11055;50.870;4.316;2022-09-12T16:26:49;25.80;98.20
21787;DHT22;11055;50.870;4.316;2022-09-12T16:29:14;25.80;98.90
21787;DHT22;11055;50.870;4.316;2022-09-12T16:31:40;25.80;99.20
21787;DHT22;11055;50.870;4.316;2022-09-12T16:34:06;25.80;99.10
21787;DHT22;11055;50.870;4.316;2022-09-12T16:36:32;25.70;98.20
21787;DHT22;11055;50.870;4.316;2022-09-12T16:38:59;25.70;98.60
21787;DHT22;11055;50.870;4.316;2022-09-12T16:41:24;25.80;99.40
21787;DHT22;11055;50.870;4.316;2022-09-12T16:43:50;25.80;99.70
21787;DHT22;11055;50.870;4.316;2022-09-12T16:46:17;25.80;99.70
21787;DHT22;11055;50.870;4.316;2022-09-12T16:48:44;25.60;98.40
21787;DHT22;11055;50.870;4.316;2022-09-12T16:51:10;25.50;98.00
21787;DHT22;11055;50.870;4.316;2022-09-12T16:53:36;25.60;98.50
21787;DHT22;11055;50.870;4.316;2022-09-12T16:56:05;25.60;99.30
21787;DHT22;11055;50.870;4.316;2022-09-12T16:58:31;25.60;99.70
21787;DHT22;11055;50.870;4.316;2022-09-12T17:01:01;25.60;99.80
21787;DHT22;11055;50.870;4.316;2022-09-12T17:03:27;25.60;99.90
21787;DHT22;11055;50.870;4.316;2022-09-12T17:05:59;25.60;99.90
21787;DHT22;11055;50.870;4.316;2022-09-12T17:08:26;25.60;99.90
21787;DHT22;11055;50.870;4.316;2022-09-12T17:10:57;25.70;99.90
21787;DHT22;11055;50.870;4.316;2022-09-12T17:13:23;25.60;99.90
21787;DHT22;11055;50.870;4.316;2022-09-12T17:15:48;25.60;99.90
21787;DHT22;11055;50.870;4.316;2022-09-12T17:18:13;25.60;99.90
21787;DHT22;11055;50.870;4.316;2022-09-12T17:20:39;25.60;99.90
21787;DHT22;11055;50.870;4.316;2022-09-12T17:23:04;25.50;99.90
21787;DHT22;11055;50.870;4.316;2022-09-12T17:25:30;25.50;99.90
21787;DHT22;11055;50.870;4.316;2022-09-12T17:27:56;25.50;99.90
21787;DHT22;11055;50.870;4.316;2022-09-12T17:30:21;25.40;99.90
21787;DHT22;11055;50.870;4.316;2022-09-12T17:32:47;25.40;99.90
21787;DHT22;11055;50.870;4.316;2022-09-12T17:35:12;25.40;99.90
21787;DHT22;11055;50.870;4.316;2022-09-12T17:37:38;25.40;99.90
21787;DHT22;11055;50.870;4.316;2022-09-12T17:40:03;25.40;99.90
21787;DHT22;11055;50.870;4.316;2022-09-12T17:42:29;25.30;99.90
21787;DHT22;11055;50.870;4.316;2022-09-12T17:44:55;25.30;99.90
21787;DHT22;11055;50.870;4.316;2022-09-12T17:47:22;25.30;99.90
21787;DHT22;11055;50.870;4.316;2022-09-12T17:49:48;25.30;99.90
21787;DHT22;11055;50.870;4.316;2022-09-12T17:52:14;25.20;99.90
21787;DHT22;11055;50.870;4.316;2022-09-12T17:54:41;25.20;99.90
21787;DHT22;11055;50.870;4.316;2022-09-12T17:57:06;25.10;99.90
21787;DHT22;11055;50.870;4.316;2022-09-12T17:59:32;25.10;99.90
21787;DHT22;11055;50.870;4.316;2022-09-12T18:01:57;25.10;99.90
21787;DHT22;11055;50.870;4.316;2022-09-12T18:04:39;25.10;99.90
21787;DHT22;11055;50.870;4.316;2022-09-12T18:07:05;25.00;99.90
21787;DHT22;11055;50.870;4.316;2022-09-12T18:09:31;25.00;99.90
21787;DHT22;11055;50.870;4.316;2022-09-12T18:11:57;25.00;99.90
21787;DHT22;11055;50.870;4.316;2022-09-12T18:14:23;24.90;99.90